Amelia E145 at Paris on Oct 20th 2022, runway excursion on landing

Last Update: October 27, 2022 / 15:34:10 GMT/Zulu time

Bookmark this article
Incident Facts

Date of incident
Oct 20, 2022

Classification
Incident

Airline
Fly Amelia

Flight number
8R-1217

Departure
Rodez, France

Aircraft Registration
F-HYOG

Aircraft Type
Embraer ERJ-145

ICAO Type Designator
E145

Airport ICAO Code
LFPO

A Fly Amelia Embraer ERJ-145, registration F-HYOG performing flight 8R-1217 from Rodez to Paris Orly (France) with 39 passengers and 3 crew, landed on Paris Orly's runway 25 at 19:19L (17:19Z) however went off the runway. The aircraft came to a stop with all gear on soft ground. There were no injuries.

The BEA have dispatched 4 investigators on site.

On Oct 27th 2022 the BEA reported: "During landing, at night, the airplane left the runway longitudinally.", rated the damage to the aircraft minor and the occurrence a serious incident.

Metars:
LFPO 201930Z 18005KT 9999 FEW015 SCT070 BKN100 15/15 Q1008 NOSIG
LFPO 201900Z 15005KT 100V190 9999 FEW012 BKN120 15/15 Q1008 NOSIG
LFPO 201830Z 11003KT CAVOK 15/14 Q1008 TEMPO 4000 -TSRA BKN060CB
LFPO 201800Z 23005KT 9999 FEW053CB BKN090 15/14 Q1009 RESHRA RETSRA TEMPO 4000 -TSRA BKN060CB
LFPO 201730Z 18005KT 130V280 8000 VCTS FEW011 SCT022 BKN060CB 16/13 Q1008 RESHRA TEMPO 4000 -TSRA BKN060CB
LFPO 201700Z 22008KT 180V250 8000 -TSRA FEW032 BKN060CB BKN090 20/17 Q1009 TEMPO 4000 -TSRA BKN060CB
LFPO 201630Z 17005KT 9999 -SHRA FEW040 SCT066CB BKN086 21/16 Q1008 TEMPO 4000 -TSRA BKN060CB
LFPO 201600Z 15004KT 110V180 9999 FEW040 FEW066CB SCT100 BKN200 21/16 Q1008 TEMPO 4000 -TSRA BKN060CB
LFPO 201530Z 15004KT 110V180 9999 FEW040 FEW066CB SCT110 BKN200 22/15 Q1008 TEMPO 4000 -TSRA BKN060CB
LFPO 201500Z 17004KT 140V200 9999 FEW040 FEW066CB SCT110 21/15 Q1008 TEMPO 4000 -TSRA BKN060CB
Incident Facts

Date of incident
Oct 20, 2022

Classification
Incident

Airline
Fly Amelia

Flight number
8R-1217

Departure
Rodez, France

Aircraft Registration
F-HYOG

Aircraft Type
Embraer ERJ-145

ICAO Type Designator
E145

Airport ICAO Code
LFPO

This article is published under license from Avherald.com. © of text by Avherald.com.
Article source

You can read 2 more free articles without a subscription.

Subscribe now and continue reading without any limits!

Are you a subscriber? Login
Subscribe

Read unlimited articles and receive our daily update briefing. Gain better insights into what is happening in commercial aviation safety.

Send tip

Support AeroInside by sending a small tip amount.

Newest articles

Subscribe today

Are you researching aviation incidents? Get access to AeroInside Insights, unlimited read access and receive the daily newsletter.

Pick your plan and subscribe

Partner

Blockaviation logo

A new way to document and demonstrate airworthiness compliance and aircraft value. Find out more.

Virtual Speech logo

ELITE Simulation Solutions is a leading global provider of Flight Simulation Training Devices, IFR training software as well as flight controls and related services. Find out more.

AeroInside Blog
Popular aircraft
Airbus A320
Boeing 737-800
Boeing 737-800 MAX
Popular airlines
American Airlines
United
Delta
Air Canada
Lufthansa
British Airways